sensor_id;sensor_type;location;lat;lon;timestamp;pressure;altitude;pressure_sealevel;temperature;humidity
41218;BME280;26950;50.960;7.138;2023-06-14T00:00:31;100249.28;;;27.87;26.33
41218;BME280;26950;50.960;7.138;2023-06-14T00:02:59;100243.09;;;27.85;26.33
41218;BME280;26950;50.960;7.138;2023-06-14T00:05:25;100252.50;;;27.57;26.98
41218;BME280;26950;50.960;7.138;2023-06-14T00:07:54;100248.53;;;27.64;26.72
41218;BME280;26950;50.960;7.138;2023-06-14T00:10:21;100247.31;;;27.53;26.59
41218;BME280;26950;50.960;7.138;2023-06-14T00:12:49;100248.34;;;27.50;26.69
41218;BME280;26950;50.960;7.138;2023-06-14T00:15:15;100250.09;;;27.51;26.68
41218;BME280;26950;50.960;7.138;2023-06-14T00:17:42;100254.59;;;27.32;27.39
41218;BME280;26950;50.960;7.138;2023-06-14T00:20:11;100252.66;;;27.35;26.63
41218;BME280;26950;50.960;7.138;2023-06-14T00:22:37;100262.38;;;27.19;26.84
41218;BME280;26950;50.960;7.138;2023-06-14T00:25:04;100259.56;;;27.22;26.45
41218;BME280;26950;50.960;7.138;2023-06-14T00:27:31;100263.41;;;27.17;26.25
41218;BME280;26950;50.960;7.138;2023-06-14T00:29:59;100262.09;;;27.25;26.33
41218;BME280;26950;50.960;7.138;2023-06-14T00:32:25;100260.88;;;27.32;26.13
41218;BME280;26950;50.960;7.138;2023-06-14T00:34:53;100267.22;;;27.31;26.29
41218;BME280;26950;50.960;7.138;2023-06-14T00:37:19;100264.69;;;26.87;26.23
41218;BME280;26950;50.960;7.138;2023-06-14T00:39:46;100269.13;;;27.09;26.34
41218;BME280;26950;50.960;7.138;2023-06-14T00:42:23;100272.22;;;27.20;26.02
41218;BME280;26950;50.960;7.138;2023-06-14T00:44:49;100271.94;;;27.26;25.96
41218;BME280;26950;50.960;7.138;2023-06-14T00:47:17;100263.94;;;27.25;25.62
41218;BME280;26950;50.960;7.138;2023-06-14T00:49:45;100277.59;;;27.20;25.75
41218;BME280;26950;50.960;7.138;2023-06-14T00:52:13;100269.09;;;27.10;26.13
41218;BME280;26950;50.960;7.138;2023-06-14T00:54:40;100274.03;;;26.99;26.00
41218;BME280;26950;50.960;7.138;2023-06-14T00:57:07;100278.75;;;27.14;25.77
41218;BME280;26950;50.960;7.138;2023-06-14T00:59:35;100273.91;;;27.02;26.10
41218;BME280;26950;50.960;7.138;2023-06-14T01:02:06;100274.28;;;26.74;26.44
41218;BME280;26950;50.960;7.138;2023-06-14T01:04:35;100275.00;;;26.98;26.20
41218;BME280;26950;50.960;7.138;2023-06-14T01:07:09;100281.19;;;27.00;26.19
41218;BME280;26950;50.960;7.138;2023-06-14T01:09:47;100274.19;;;26.76;26.19
41218;BME280;26950;50.960;7.138;2023-06-14T01:12:24;100287.59;;;26.57;26.49
41218;BME280;26950;50.960;7.138;2023-06-14T01:14:57;100283.75;;;26.62;26.44
41218;BME280;26950;50.960;7.138;2023-06-14T01:17:24;100285.34;;;26.46;26.58
41218;BME280;26950;50.960;7.138;2023-06-14T01:19:53;100286.94;;;26.72;26.05
41218;BME280;26950;50.960;7.138;2023-06-14T01:22:24;100275.63;;;26.64;26.43
41218;BME280;26950;50.960;7.138;2023-06-14T01:24:53;100288.41;;;26.79;26.13
41218;BME280;26950;50.960;7.138;2023-06-14T01:27:22;100279.94;;;26.68;25.98
41218;BME280;26950;50.960;7.138;2023-06-14T01:29:50;100280.59;;;26.73;25.94
41218;BME280;26950;50.960;7.138;2023-06-14T01:32:17;100283.94;;;26.58;26.57
41218;BME280;26950;50.960;7.138;2023-06-14T01:34:44;100277.66;;;26.59;26.33
41218;BME280;26950;50.960;7.138;2023-06-14T01:37:12;100278.56;;;26.58;26.45
41218;BME280;26950;50.960;7.138;2023-06-14T01:39:40;100281.06;;;26.42;26.26
41218;BME280;26950;50.960;7.138;2023-06-14T01:42:10;100283.09;;;26.35;26.33
41218;BME280;26950;50.960;7.138;2023-06-14T01:44:37;100281.00;;;26.44;26.41
41218;BME280;26950;50.960;7.138;2023-06-14T01:47:05;100284.63;;;26.43;26.36
41218;BME280;26950;50.960;7.138;2023-06-14T01:49:33;100283.38;;;26.29;26.39
41218;BME280;26950;50.960;7.138;2023-06-14T01:51:59;100283.75;;;26.20;26.61
41218;BME280;26950;50.960;7.138;2023-06-14T01:54:26;100286.03;;;26.09;26.54
41218;BME280;26950;50.960;7.138;2023-06-14T01:56:54;100280.50;;;26.12;26.42
41218;BME280;26950;50.960;7.138;2023-06-14T01:59:22;100279.59;;;26.33;26.21
41218;BME280;26950;50.960;7.138;2023-06-14T02:01:49;100281.69;;;26.49;26.23
41218;BME280;26950;50.960;7.138;2023-06-14T02:04:16;100290.03;;;25.99;26.91
41218;BME280;26950;50.960;7.138;2023-06-14T02:06:43;100278.09;;;26.26;26.28
41218;BME280;26950;50.960;7.138;2023-06-14T02:09:09;100286.84;;;26.11;26.46
41218;BME280;26950;50.960;7.138;2023-06-14T02:11:36;100273.34;;;26.33;26.35
41218;BME280;26950;50.960;7.138;2023-06-14T02:14:02;100280.75;;;26.06;26.27
41218;BME280;26950;50.960;7.138;2023-06-14T02:16:30;100279.53;;;25.93;26.39
41218;BME280;26950;50.960;7.138;2023-06-14T02:18:58;100281.41;;;25.91;26.58
41218;BME280;26950;50.960;7.138;2023-06-14T02:21:24;100282.25;;;26.13;26.30
41218;BME280;26950;50.960;7.138;2023-06-14T02:23:51;100284.69;;;26.19;26.12
41218;BME280;26950;50.960;7.138;2023-06-14T02:26:17;100281.81;;;26.24;26.10
41218;BME280;26950;50.960;7.138;2023-06-14T02:28:44;100290.34;;;26.33;25.99
41218;BME280;26950;50.960;7.138;2023-06-14T02:31:10;100286.50;;;26.19;26.14
41218;BME280;26950;50.960;7.138;2023-06-14T02:33:38;100288.59;;;26.32;26.22
41218;BME280;26950;50.960;7.138;2023-06-14T02:36:05;100303.47;;;25.99;26.59
41218;BME280;26950;50.960;7.138;2023-06-14T02:38:32;100295.91;;;26.08;26.65
41218;BME280;26950;50.960;7.138;2023-06-14T02:40:58;100301.38;;;26.27;26.69
41218;BME280;26950;50.960;7.138;2023-06-14T02:43:28;100309.97;;;25.70;27.43
41218;BME280;26950;50.960;7.138;2023-06-14T02:45:55;100302.84;;;25.69;27.73
41218;BME280;26950;50.960;7.138;2023-06-14T02:48:21;100311.47;;;25.78;27.47
41218;BME280;26950;50.960;7.138;2023-06-14T02:50:49;100307.16;;;25.01;28.39
41218;BME280;26950;50.960;7.138;2023-06-14T02:53:16;100308.00;;;25.75;27.43
41218;BME280;26950;50.960;7.138;2023-06-14T02:55:43;100308.38;;;25.64;28.51
41218;BME280;26950;50.960;7.138;2023-06-14T02:58:09;100314.19;;;25.77;28.32
41218;BME280;26950;50.960;7.138;2023-06-14T03:00:35;100316.59;;;25.85;28.38
41218;BME280;26950;50.960;7.138;2023-06-14T03:03:03;100315.28;;;25.73;28.26
41218;BME280;26950;50.960;7.138;2023-06-14T03:05:38;100314.84;;;25.84;28.33
41218;BME280;26950;50.960;7.138;2023-06-14T03:08:07;100317.16;;;25.93;28.12
41218;BME280;26950;50.960;7.138;2023-06-14T03:10:34;100327.22;;;25.88;28.05
41218;BME280;26950;50.960;7.138;2023-06-14T03:13:01;100323.78;;;25.84;28.07
41218;BME280;26950;50.960;7.138;2023-06-14T03:15:27;100318.22;;;25.65;28.61
41218;BME280;26950;50.960;7.138;2023-06-14T03:17:54;100324.78;;;25.35;29.01
41218;BME280;26950;50.960;7.138;2023-06-14T03:20:20;100327.16;;;25.42;29.07
41218;BME280;26950;50.960;7.138;2023-06-14T03:22:49;100326.44;;;25.14;29.53
41218;BME280;26950;50.960;7.138;2023-06-14T03:25:17;100332.22;;;25.26;29.49
41218;BME280;26950;50.960;7.138;2023-06-14T03:27:44;100343.38;;;24.10;31.38
41218;BME280;26950;50.960;7.138;2023-06-14T03:30:11;100335.81;;;24.75;30.24
41218;BME280;26950;50.960;7.138;2023-06-14T03:32:37;100341.66;;;25.13;29.73
41218;BME280;26950;50.960;7.138;2023-06-14T03:35:04;100345.50;;;25.06;29.89
41218;BME280;26950;50.960;7.138;2023-06-14T03:37:31;100337.28;;;25.11;29.84
41218;BME280;26950;50.960;7.138;2023-06-14T03:39:58;100343.00;;;25.00;30.03
41218;BME280;26950;50.960;7.138;2023-06-14T03:42:25;100353.25;;;24.09;31.43
41218;BME280;26950;50.960;7.138;2023-06-14T03:44:52;100356.34;;;24.78;30.32
41218;BME280;26950;50.960;7.138;2023-06-14T03:47:18;100355.66;;;24.71;30.59
41218;BME280;26950;50.960;7.138;2023-06-14T03:49:45;100361.75;;;24.50;30.87
41218;BME280;26950;50.960;7.138;2023-06-14T03:52:11;100363.41;;;23.98;31.69
41218;BME280;26950;50.960;7.138;2023-06-14T03:54:39;100361.75;;;24.50;31.20
41218;BME280;26950;50.960;7.138;2023-06-14T03:57:06;100362.41;;;24.57;31.06
41218;BME280;26950;50.960;7.138;2023-06-14T03:59:34;100367.63;;;24.61;31.00
41218;BME280;26950;50.960;7.138;2023-06-14T04:02:00;100369.31;;;24.37;31.61
41218;BME280;26950;50.960;7.138;2023-06-14T04:04:27;100375.13;;;24.52;31.89
41218;BME280;26950;50.960;7.138;2023-06-14T04:06:54;100373.16;;;24.29;32.03
41218;BME280;26950;50.960;7.138;2023-06-14T04:09:22;100378.59;;;24.26;32.26
41218;BME280;26950;50.960;7.138;2023-06-14T04:11:50;100381.16;;;24.30;32.38
41218;BME280;26950;50.960;7.138;2023-06-14T04:14:16;100386.84;;;23.91;33.08
41218;BME280;26950;50.960;7.138;2023-06-14T04:16:44;100387.63;;;23.65;33.49
41218;BME280;26950;50.960;7.138;2023-06-14T04:19:11;100394.19;;;23.85;33.19
41218;BME280;26950;50.960;7.138;2023-06-14T04:21:37;100392.91;;;23.98;33.46
41218;BME280;26950;50.960;7.138;2023-06-14T04:24:04;100399.09;;;23.71;33.75
41218;BME280;26950;50.960;7.138;2023-06-14T04:26:32;100403.31;;;24.07;33.89
41218;BME280;26950;50.960;7.138;2023-06-14T04:28:59;100396.81;;;24.16;33.58
41218;BME280;26950;50.960;7.138;2023-06-14T04:31:27;100401.69;;;24.31;33.26
41218;BME280;26950;50.960;7.138;2023-06-14T04:33:56;100398.00;;;24.35;34.00
41218;BME280;26950;50.960;7.138;2023-06-14T04:36:22;100413.59;;;23.93;34.54
41218;BME280;26950;50.960;7.138;2023-06-14T04:38:50;100411.38;;;24.07;34.47
41218;BME280;26950;50.960;7.138;2023-06-14T04:41:20;100408.53;;;24.12;34.21
41218;BME280;26950;50.960;7.138;2023-06-14T04:43:48;100413.09;;;24.10;34.73
41218;BME280;26950;50.960;7.138;2023-06-14T04:46:14;100418.13;;;24.20;34.67
41218;BME280;26950;50.960;7.138;2023-06-14T04:48:41;100419.41;;;24.07;35.01
41218;BME280;26950;50.960;7.138;2023-06-14T04:51:09;100420.38;;;24.05;35.13
41218;BME280;26950;50.960;7.138;2023-06-14T04:53:36;100427.28;;;23.84;35.72
41218;BME280;26950;50.960;7.138;2023-06-14T04:56:03;100428.50;;;24.03;35.46
41218;BME280;26950;50.960;7.138;2023-06-14T04:58:30;100420.72;;;23.94;35.50
41218;BME280;26950;50.960;7.138;2023-06-14T05:00:57;100435.16;;;23.90;35.54
41218;BME280;26950;50.960;7.138;2023-06-14T05:03:24;100431.56;;;24.19;35.32
41218;BME280;26950;50.960;7.138;2023-06-14T05:05:52;100429.28;;;23.77;35.77
41218;BME280;26950;50.960;7.138;2023-06-14T05:08:20;100425.13;;;24.25;34.68
41218;BME280;26950;50.960;7.138;2023-06-14T05:10:48;100429.88;;;24.44;34.47
41218;BME280;26950;50.960;7.138;2023-06-14T05:13:14;100429.53;;;24.55;34.24
41218;BME280;26950;50.960;7.138;2023-06-14T05:15:41;100433.72;;;24.64;34.00
41218;BME280;26950;50.960;7.138;2023-06-14T05:18:08;100433.41;;;24.17;34.98
41218;BME280;26950;50.960;7.138;2023-06-14T05:20:35;100441.53;;;24.43;35.12
41218;BME280;26950;50.960;7.138;2023-06-14T05:23:02;100430.28;;;24.03;32.86
41218;BME280;26950;50.960;7.138;2023-06-14T05:25:30;100439.13;;;24.36;32.91
41218;BME280;26950;50.960;7.138;2023-06-14T05:27:57;100434.97;;;24.24;32.53
41218;BME280;26950;50.960;7.138;2023-06-14T05:30:23;100436.22;;;24.14;33.07
41218;BME280;26950;50.960;7.138;2023-06-14T05:32:52;100424.19;;;24.55;31.88
41218;BME280;26950;50.960;7.138;2023-06-14T05:35:20;100435.34;;;24.96;31.51
41218;BME280;26950;50.960;7.138;2023-06-14T05:37:48;100434.81;;;24.58;31.96
41218;BME280;26950;50.960;7.138;2023-06-14T05:40:15;100434.22;;;24.48;31.54
41218;BME280;26950;50.960;7.138;2023-06-14T05:42:43;100436.03;;;25.01;30.35
41218;BME280;26950;50.960;7.138;2023-06-14T05:45:12;100434.63;;;25.17;30.65
41218;BME280;26950;50.960;7.138;2023-06-14T05:47:40;100436.09;;;24.99;30.92
41218;BME280;26950;50.960;7.138;2023-06-14T05:50:07;100437.91;;;24.99;31.22
41218;BME280;26950;50.960;7.138;2023-06-14T05:52:34;100433.47;;;25.24;30.21
41218;BME280;26950;50.960;7.138;2023-06-14T05:55:00;100441.53;;;25.49;30.17
41218;BME280;26950;50.960;7.138;2023-06-14T05:57:27;100448.03;;;25.17;30.83
41218;BME280;26950;50.960;7.138;2023-06-14T05:59:55;100449.97;;;25.39;30.37
41218;BME280;26950;50.960;7.138;2023-06-14T06:02:22;100444.94;;;25.54;30.00
41218;BME280;26950;50.960;7.138;2023-06-14T06:04:48;100441.22;;;25.57;29.91
41218;BME280;26950;50.960;7.138;2023-06-14T06:07:15;100444.94;;;25.29;30.45
41218;BME280;26950;50.960;7.138;2023-06-14T06:09:41;100443.34;;;25.49;30.04
41218;BME280;26950;50.960;7.138;2023-06-14T06:12:08;100451.09;;;25.33;30.08
41218;BME280;26950;50.960;7.138;2023-06-14T06:14:35;100453.00;;;25.54;29.92
41218;BME280;26950;50.960;7.138;2023-06-14T06:17:04;100453.06;;;25.53;30.45
41218;BME280;26950;50.960;7.138;2023-06-14T06:19:30;100459.16;;;25.07;30.91
41218;BME280;26950;50.960;7.138;2023-06-14T06:21:57;100452.38;;;25.71;30.03
41218;BME280;26950;50.960;7.138;2023-06-14T06:24:23;100448.72;;;25.24;30.26
41218;BME280;26950;50.960;7.138;2023-06-14T06:26:50;100455.56;;;25.33;29.83
41218;BME280;26950;50.960;7.138;2023-06-14T06:29:16;100454.81;;;25.79;29.64
41218;BME280;26950;50.960;7.138;2023-06-14T06:31:43;100459.16;;;25.56;30.13
41218;BME280;26950;50.960;7.138;2023-06-14T06:34:12;100459.94;;;25.85;29.58
41218;BME280;26950;50.960;7.138;2023-06-14T06:36:39;100464.00;;;25.97;29.61
41218;BME280;26950;50.960;7.138;2023-06-14T06:39:05;100471.13;;;25.48;30.26
41218;BME280;26950;50.960;7.138;2023-06-14T06:41:35;100476.78;;;25.65;30.16
41218;BME280;26950;50.960;7.138;2023-06-14T06:44:02;100481.72;;;25.27;30.61
41218;BME280;26950;50.960;7.138;2023-06-14T06:46:29;100478.19;;;25.50;29.89
41218;BME280;26950;50.960;7.138;2023-06-14T06:48:55;100480.88;;;25.50;29.32
41218;BME280;26950;50.960;7.138;2023-06-14T06:51:23;100483.22;;;26.09;29.25
41218;BME280;26950;50.960;7.138;2023-06-14T06:53:52;100486.38;;;25.97;29.33
41218;BME280;26950;50.960;7.138;2023-06-14T06:56:20;100487.56;;;25.89;29.60
41218;BME280;26950;50.960;7.138;2023-06-14T06:58:47;100497.63;;;26.30;28.92
41218;BME280;26950;50.960;7.138;2023-06-14T07:01:13;100493.31;;;25.79;29.97
41218;BME280;26950;50.960;7.138;2023-06-14T07:03:39;100497.78;;;26.04;29.38
41218;BME280;26950;50.960;7.138;2023-06-14T07:06:06;100494.72;;;25.40;29.89
41218;BME280;26950;50.960;7.138;2023-06-14T07:08:34;100500.13;;;25.38;29.91
41218;BME280;26950;50.960;7.138;2023-06-14T07:11:01;100493.66;;;25.94;29.68
41218;BME280;26950;50.960;7.138;2023-06-14T07:13:27;100498.13;;;26.18;29.66
41218;BME280;26950;50.960;7.138;2023-06-14T07:15:54;100497.91;;;26.70;27.72
41218;BME280;26950;50.960;7.138;2023-06-14T07:18:23;100495.91;;;26.53;28.68
41218;BME280;26950;50.960;7.138;2023-06-14T07:20:49;100494.63;;;26.83;28.00
41218;BME280;26950;50.960;7.138;2023-06-14T07:23:17;100496.97;;;26.93;27.40
41218;BME280;26950;50.960;7.138;2023-06-14T07:25:45;100492.38;;;26.95;26.94
41218;BME280;26950;50.960;7.138;2023-06-14T07:28:11;100485.53;;;27.09;26.13
41218;BME280;26950;50.960;7.138;2023-06-14T07:30:38;100493.72;;;26.84;26.19
41218;BME280;26950;50.960;7.138;2023-06-14T07:33:05;100488.88;;;27.96;25.23
41218;BME280;26950;50.960;7.138;2023-06-14T07:35:33;100505.28;;;27.91;25.03
41218;BME280;26950;50.960;7.138;2023-06-14T07:38:00;100505.88;;;27.37;25.80
41218;BME280;26950;50.960;7.138;2023-06-14T07:40:26;100500.63;;;28.14;24.49
41218;BME280;26950;50.960;7.138;2023-06-14T07:42:54;100502.44;;;28.13;24.29
41218;BME280;26950;50.960;7.138;2023-06-14T07:45:21;100503.75;;;28.05;24.48
41218;BME280;26950;50.960;7.138;2023-06-14T07:47:47;100495.69;;;27.84;24.77
41218;BME280;26950;50.960;7.138;2023-06-14T07:50:13;100498.06;;;27.31;24.59
41218;BME280;26950;50.960;7.138;2023-06-14T07:52:40;100497.78;;;27.37;24.92
41218;BME280;26950;50.960;7.138;2023-06-14T07:55:07;100485.97;;;27.19;25.16
41218;BME280;26950;50.960;7.138;2023-06-14T07:57:33;100498.41;;;27.43;25.27
41218;BME280;26950;50.960;7.138;2023-06-14T08:00:02;100486.44;;;27.90;23.79
41218;BME280;26950;50.960;7.138;2023-06-14T08:02:31;100497.00;;;28.34;23.69
41218;BME280;26950;50.960;7.138;2023-06-14T08:04:57;100490.81;;;28.32;22.45
41218;BME280;26950;50.960;7.138;2023-06-14T08:07:24;100498.16;;;28.28;23.00
41218;BME280;26950;50.960;7.138;2023-06-14T08:09:51;100492.78;;;27.89;23.97
41218;BME280;26950;50.960;7.138;2023-06-14T08:12:17;100489.13;;;28.29;23.05
41218;BME280;26950;50.960;7.138;2023-06-14T08:14:44;100489.34;;;28.62;22.70
41218;BME280;26950;50.960;7.138;2023-06-14T08:17:11;100482.94;;;28.46;23.49
41218;BME280;26950;50.960;7.138;2023-06-14T08:19:38;100489.63;;;28.75;22.88
41218;BME280;26950;50.960;7.138;2023-06-14T08:22:05;100486.25;;;28.70;23.53
41218;BME280;26950;50.960;7.138;2023-06-14T08:24:32;100488.25;;;29.02;21.94
41218;BME280;26950;50.960;7.138;2023-06-14T08:26:58;100479.41;;;29.86;21.56
41218;BME280;26950;50.960;7.138;2023-06-14T08:29:26;100486.38;;;29.74;21.95
41218;BME280;26950;50.960;7.138;2023-06-14T08:31:54;100474.13;;;29.49;22.51
41218;BME280;26950;50.960;7.138;2023-06-14T08:34:22;100480.97;;;29.39;22.67
41218;BME280;26950;50.960;7.138;2023-06-14T08:36:49;100487.16;;;29.41;21.77
41218;BME280;26950;50.960;7.138;2023-06-14T08:39:16;100489.63;;;29.46;21.63
41218;BME280;26950;50.960;7.138;2023-06-14T08:41:46;100494.41;;;29.06;21.98
41218;BME280;26950;50.960;7.138;2023-06-14T08:44:13;100491.38;;;28.57;23.12
41218;BME280;26950;50.960;7.138;2023-06-14T08:46:41;100481.59;;;29.10;22.84
41218;BME280;26950;50.960;7.138;2023-06-14T08:49:11;100480.41;;;28.98;22.46
41218;BME280;26950;50.960;7.138;2023-06-14T08:51:39;100486.94;;;29.11;22.75
41218;BME280;26950;50.960;7.138;2023-06-14T08:54:06;100486.47;;;29.38;22.24
41218;BME280;26950;50.960;7.138;2023-06-14T08:56:33;100486.50;;;29.01;22.05
41218;BME280;26950;50.960;7.138;2023-06-14T08:59:00;100480.41;;;29.33;21.70
41218;BME280;26950;50.960;7.138;2023-06-14T09:01:28;100476.19;;;29.44;21.92
41218;BME280;26950;50.960;7.138;2023-06-14T09:03:56;100476.34;;;29.41;22.40
41218;BME280;26950;50.960;7.138;2023-06-14T09:06:23;100475.22;;;29.80;22.25
41218;BME280;26950;50.960;7.138;2023-06-14T09:08:51;100481.09;;;30.21;21.64
41218;BME280;26950;50.960;7.138;2023-06-14T09:11:18;100483.28;;;30.62;20.94
41218;BME280;26950;50.960;7.138;2023-06-14T09:13:45;100475.50;;;30.40;21.68
41218;BME280;26950;50.960;7.138;2023-06-14T09:16:12;100468.44;;;31.15;20.30
41218;BME280;26950;50.960;7.138;2023-06-14T09:18:40;100472.69;;;30.10;21.23
41218;BME280;26950;50.960;7.138;2023-06-14T09:21:09;100472.44;;;29.97;22.07
41218;BME280;26950;50.960;7.138;2023-06-14T09:23:37;100475.16;;;29.97;21.39
41218;BME280;26950;50.960;7.138;2023-06-14T09:26:09;100482.91;;;30.21;21.33
41218;BME280;26950;50.960;7.138;2023-06-14T09:28:37;100478.63;;;30.17;21.45
41218;BME280;26950;50.960;7.138;2023-06-14T09:31:07;100479.69;;;30.14;21.45
41218;BME280;26950;50.960;7.138;2023-06-14T09:33:35;100488.09;;;29.40;22.04
41218;BME280;26950;50.960;7.138;2023-06-14T09:36:02;100495.03;;;28.56;23.92
41218;BME280;26950;50.960;7.138;2023-06-14T09:38:28;100495.56;;;29.00;23.55
41218;BME280;26950;50.960;7.138;2023-06-14T09:40:57;100503.16;;;29.11;23.09
41218;BME280;26950;50.960;7.138;2023-06-14T09:43:25;100493.66;;;28.10;24.22
41218;BME280;26950;50.960;7.138;2023-06-14T09:45:54;100500.22;;;28.61;23.51
41218;BME280;26950;50.960;7.138;2023-06-14T09:48:20;100501.88;;;28.63;23.68
41218;BME280;26950;50.960;7.138;2023-06-14T09:50:50;100504.78;;;28.77;23.00
41218;BME280;26950;50.960;7.138;2023-06-14T09:53:19;100495.63;;;28.63;23.23
41218;BME280;26950;50.960;7.138;2023-06-14T09:55:49;100492.03;;;28.06;24.45
41218;BME280;26950;50.960;7.138;2023-06-14T09:58:16;100489.97;;;28.86;23.58
41218;BME280;26950;50.960;7.138;2023-06-14T10:00:47;100489.56;;;29.13;23.61
41218;BME280;26950;50.960;7.138;2023-06-14T10:03:21;100495.03;;;28.75;23.95
41218;BME280;26950;50.960;7.138;2023-06-14T10:05:50;100493.84;;;29.17;22.67
41218;BME280;26950;50.960;7.138;2023-06-14T10:08:19;100496.31;;;28.85;23.94
41218;BME280;26950;50.960;7.138;2023-06-14T10:10:51;100496.84;;;28.74;24.34
41218;BME280;26950;50.960;7.138;2023-06-14T10:13:17;100488.50;;;29.15;23.75
41218;BME280;26950;50.960;7.138;2023-06-14T10:15:52;100487.53;;;29.16;24.01
41218;BME280;26950;50.960;7.138;2023-06-14T10:18:26;100487.66;;;29.32;24.09
41218;BME280;26950;50.960;7.138;2023-06-14T10:21:04;100487.31;;;28.48;24.74
41218;BME280;26950;50.960;7.138;2023-06-14T10:23:37;100492.94;;;28.44;24.88
41218;BME280;26950;50.960;7.138;2023-06-14T10:26:04;100491.53;;;28.73;24.66
41218;BME280;26950;50.960;7.138;2023-06-14T10:28:30;100495.38;;;28.86;25.02
41218;BME280;26950;50.960;7.138;2023-06-14T10:31:09;100482.84;;;27.91;25.97
41218;BME280;26950;50.960;7.138;2023-06-14T10:33:39;100489.94;;;28.31;25.92
41218;BME280;26950;50.960;7.138;2023-06-14T10:36:11;100482.22;;;28.79;25.89
41218;BME280;26950;50.960;7.138;2023-06-14T10:38:57;100496.44;;;29.01;25.37
41218;BME280;26950;50.960;7.138;2023-06-14T10:41:25;100483.16;;;28.96;25.20
41218;BME280;26950;50.960;7.138;2023-06-14T10:43:53;100486.34;;;28.68;25.82
41218;BME280;26950;50.960;7.138;2023-06-14T10:46:38;100481.78;;;29.92;24.36
41218;BME280;26950;50.960;7.138;2023-06-14T10:49:05;100474.38;;;29.62;25.25
41218;BME280;26950;50.960;7.138;2023-06-14T10:51:38;100469.59;;;30.00;25.13
41218;BME280;26950;50.960;7.138;2023-06-14T10:54:11;100484.88;;;29.68;25.00
41218;BME280;26950;50.960;7.138;2023-06-14T10:56:45;100488.28;;;30.05;24.26
41218;BME280;26950;50.960;7.138;2023-06-14T10:59:12;100489.03;;;30.24;24.19
41218;BME280;26950;50.960;7.138;2023-06-14T11:01:46;100485.09;;;30.14;23.93
41218;BME280;26950;50.960;7.138;2023-06-14T11:04:20;100481.44;;;30.47;24.21
41218;BME280;26950;50.960;7.138;2023-06-14T11:06:48;100485.13;;;30.61;24.33
41218;BME280;26950;50.960;7.138;2023-06-14T11:09:38;100470.81;;;30.75;23.53
41218;BME280;26950;50.960;7.138;2023-06-14T11:12:12;100474.44;;;30.58;24.07
41218;BME280;26950;50.960;7.138;2023-06-14T11:14:39;100477.06;;;30.60;23.90
41218;BME280;26950;50.960;7.138;2023-06-14T11:17:07;100478.81;;;30.45;24.45
41218;BME280;26950;50.960;7.138;2023-06-14T11:19:33;100463.59;;;29.78;24.18
41218;BME280;26950;50.960;7.138;2023-06-14T11:22:01;100482.13;;;30.19;23.90
41218;BME280;26950;50.960;7.138;2023-06-14T11:24:27;100474.53;;;30.41;22.93
41218;BME280;26950;50.960;7.138;2023-06-14T11:26:55;100472.81;;;30.72;22.33
41218;BME280;26950;50.960;7.138;2023-06-14T11:29:22;100463.72;;;30.73;21.83
41218;BME280;26950;50.960;7.138;2023-06-14T11:31:49;100466.94;;;30.63;21.53
41218;BME280;26950;50.960;7.138;2023-06-14T11:34:17;100469.66;;;30.48;21.77
41218;BME280;26950;50.960;7.138;2023-06-14T11:36:44;100472.03;;;30.38;22.41
41218;BME280;26950;50.960;7.138;2023-06-14T11:39:12;100471.44;;;29.32;23.59
41218;BME280;26950;50.960;7.138;2023-06-14T11:41:41;100472.03;;;29.72;22.80
41218;BME280;26950;50.960;7.138;2023-06-14T11:44:08;100469.66;;;30.32;22.07
41218;BME280;26950;50.960;7.138;2023-06-14T11:46:35;100470.44;;;30.66;22.43
41218;BME280;26950;50.960;7.138;2023-06-14T11:49:02;100473.38;;;30.61;22.16
41218;BME280;26950;50.960;7.138;2023-06-14T11:51:32;100458.19;;;29.78;22.74
41218;BME280;26950;50.960;7.138;2023-06-14T11:53:58;100474.78;;;28.84;24.25
41218;BME280;26950;50.960;7.138;2023-06-14T11:56:25;100477.41;;;28.49;24.82
41218;BME280;26950;50.960;7.138;2023-06-14T11:58:53;100470.97;;;29.24;23.67
41218;BME280;26950;50.960;7.138;2023-06-14T12:01:21;100468.41;;;29.38;24.19
41218;BME280;26950;50.960;7.138;2023-06-14T12:03:48;100471.91;;;29.91;23.63
41218;BME280;26950;50.960;7.138;2023-06-14T12:06:15;100459.38;;;29.72;23.40
41218;BME280;26950;50.960;7.138;2023-06-14T12:08:44;100473.06;;;30.02;23.54
41218;BME280;26950;50.960;7.138;2023-06-14T12:11:14;100466.09;;;30.31;23.79
41218;BME280;26950;50.960;7.138;2023-06-14T12:13:42;100483.91;;;28.81;24.64
41218;BME280;26950;50.960;7.138;2023-06-14T12:16:10;100485.41;;;29.06;24.49
41218;BME280;26950;50.960;7.138;2023-06-14T12:18:37;100473.25;;;29.66;23.61
41218;BME280;26950;50.960;7.138;2023-06-14T12:21:04;100474.78;;;29.54;24.31
41218;BME280;26950;50.960;7.138;2023-06-14T12:23:46;100477.78;;;29.31;23.99
41218;BME280;26950;50.960;7.138;2023-06-14T12:26:14;100473.59;;;29.93;23.59
41218;BME280;26950;50.960;7.138;2023-06-14T12:28:41;100473.97;;;29.00;25.39
41218;BME280;26950;50.960;7.138;2023-06-14T12:31:08;100476.84;;;28.60;25.15
41218;BME280;26950;50.960;7.138;2023-06-14T12:33:35;100472.47;;;29.29;24.45
41218;BME280;26950;50.960;7.138;2023-06-14T12:36:03;100478.34;;;28.67;25.07
41218;BME280;26950;50.960;7.138;2023-06-14T12:38:29;100479.34;;;28.64;25.25
41218;BME280;26950;50.960;7.138;2023-06-14T12:40:57;100486.59;;;28.45;25.44
41218;BME280;26950;50.960;7.138;2023-06-14T12:43:24;100480.59;;;29.29;24.77
41218;BME280;26950;50.960;7.138;2023-06-14T12:45:51;100484.06;;;29.14;24.65
41218;BME280;26950;50.960;7.138;2023-06-14T12:48:18;100477.41;;;29.04;25.07
41218;BME280;26950;50.960;7.138;2023-06-14T12:50:44;100480.22;;;27.49;25.97
41218;BME280;26950;50.960;7.138;2023-06-14T12:53:11;100486.00;;;28.38;26.28